首页
METAR-TAF:

METAR-TAF

机场 :

格尔夫波特, 密西西比州, 美国

纬度: 30-24-43N, 经度: 089-04-51W, 海拔: 8米

当前天气观测

该预报发布于36分钟前的01:53 UTC
风速3节,风向
温度 20°C
湿度 78%
气压 1017 hPa
能見度: 16.1公里
天空无云

METAR: KGPT 060153Z 19003KT 10SM CLR 20/16 A3002 RMK AO2 SLP166 T02000156

时间: 21:29 (02:29 UTC)

预报

该预报发布于2小时和57分钟前的23:32 UTC
预报有效从06日的 00点(UTC)到 06日的 24点(UTC)
风速5节,风向
能見度: 10公里
少量云层高于6000英尺
少量云层高于25000英尺
从 06日的 1400点(UTC)
风速5节,风向
能見度: 10公里
少量云层高于4000英尺
少量云层高于25000英尺
从 06日的 1700点(UTC)
风速7节,风向东南
能見度: 10公里
少量云层高于4000英尺
散云层高于20000英尺

TAF: KGPT 052332Z 0600/0624 18005KT P6SM FEW060 FEW250 FM061400 10005KT P6SM FEW040 FEW250 FM061700 14007KT P6SM FEW040 SCT200

超过4000个机场的气象观测和天气预报(METAR&TAF报告)。

可查询的气象台以黄色和红色小点在地图上表示。

将鼠标移到小点上方,可查看气象台名称。

然后点击查看天气观测和预报。

如需切换地图:点击带黑十字的绿色按钮放大地图;点击带横线的绿色按钮缩小地图;或者点击绿色箭头查看邻近地区的地图。


METAR-TAF: